Time;durP1;ratioP1;P1;durP2;ratioP2;P2;SDS_P1;SDS_P2;PMS_P1;PMS_P2;Temp;Humidity;BMP_temperature;BMP_pressure;BME280_temperature;BME280_humidity;BME280_pressure;Samples;Min_cycle;Max_cycle;Signal;HPM_P1;HPM_P2
2022/10/25 00:01:45;;;;;;;23.70;9.13;;;11.60;99.90;;;;;;5024110;28;20451;-81
2022/10/25 00:04:11;;;;;;;24.27;9.60;;;11.40;99.90;;;;;;5057831;28;20119;-77
2022/10/25 00:06:37;;;;;;;24.38;9.32;;;11.40;99.90;;;;;;5077230;28;20078;-78
2022/10/25 00:09:03;;;;;;;29.60;9.68;;;11.40;99.90;;;;;;5056429;28;21767;-77
2022/10/25 00:11:29;;;;;;;24.73;9.65;;;11.40;99.90;;;;;;5024120;28;20090;-78
2022/10/25 00:13:57;;;;;;;36.10;11.50;;;11.40;99.90;;;;;;5057088;28;20041;-78
2022/10/25 00:16:26;;;;;;;31.40;10.65;;;11.40;99.90;;;;;;5041722;28;20049;-79
2022/10/25 00:18:52;;;;;;;31.70;10.93;;;11.40;99.90;;;;;;5064450;28;20040;-77
2022/10/25 00:21:19;;;;;;;34.65;10.80;;;11.50;99.90;;;;;;5048939;28;20083;-81
2022/10/25 00:23:45;;;;;;;26.13;11.32;;;11.40;99.90;;;;;;5042431;28;20507;-79
2022/10/25 00:26:11;;;;;;;29.60;12.07;;;11.30;99.90;;;;;;5078608;28;20041;-81
2022/10/25 00:28:37;;;;;;;31.58;12.00;;;11.40;99.90;;;;;;5035355;28;20112;-79
2022/10/25 00:31:06;;;;;;;32.65;12.25;;;11.50;99.90;;;;;;5051013;28;20052;-77
2022/10/25 00:33:33;;;;;;;34.65;12.63;;;11.40;99.90;;;;;;5032887;28;20178;-79
2022/10/25 00:36:06;;;;;;;34.75;13.15;;;11.50;99.90;;;;;;5044941;28;20044;-79
2022/10/25 00:38:33;;;;;;;34.92;13.30;;;11.40;99.90;;;;;;5055978;28;20049;-79
2022/10/25 00:40:59;;;;;;;37.70;13.68;;;11.50;99.90;;;;;;5039030;28;20052;-81
2022/10/25 00:43:36;;;;;;;30.30;13.23;;;11.50;99.90;;;;;;5041758;28;20127;-77
2022/10/25 00:46:22;;;;;;;35.05;13.02;;;11.60;99.90;;;;;;5060453;28;20461;-81
2022/10/25 00:49:13;;;;;;;41.20;14.88;;;11.60;99.90;;;;;;5024196;28;20128;-80
2022/10/25 00:52:01;;;;;;;33.85;14.73;;;11.60;99.90;;;;;;5058538;28;20128;-78
2022/10/25 00:54:35;;;;;;;38.00;14.05;;;11.70;99.90;;;;;;5024589;28;20044;-80
2022/10/25 00:57:13;;;;;;;37.03;14.60;;;11.70;99.90;;;;;;5038970;28;20063;-77
2022/10/25 00:59:39;;;;;;;34.97;15.50;;;11.90;99.90;;;;;;5040253;28;20601;-80
2022/10/25 01:02:16;;;;;;;36.30;15.02;;;11.80;99.90;;;;;;5043944;28;20048;-76
2022/10/25 01:04:42;;;;;;;36.42;14.38;;;11.80;99.90;;;;;;5068834;28;20040;-76
2022/10/25 01:07:08;;;;;;;52.40;16.50;;;11.80;99.90;;;;;;5053299;28;20047;-75
2022/10/25 01:09:37;;;;;;;42.10;16.83;;;11.80;99.90;;;;;;5048623;28;20037;-80
2022/10/25 01:12:03;;;;;;;41.05;17.30;;;12.00;99.90;;;;;;5083506;28;20043;-76
2022/10/25 01:14:30;;;;;;;40.35;17.30;;;11.90;99.90;;;;;;5044258;28;20045;-81
2022/10/25 01:17:05;;;;;;;44.97;16.88;;;12.00;99.90;;;;;;5060684;28;20048;-79
2022/10/25 01:20:09;;;;;;;49.88;17.40;;;12.00;99.90;;;;;;5054702;28;20041;-81
2022/10/25 01:23:14;;;;;;;46.95;17.88;;;12.00;99.90;;;;;;5071126;28;20048;-79
2022/10/25 01:26:02;;;;;;;40.80;17.80;;;12.10;99.90;;;;;;5072063;28;20048;-79
2022/10/25 01:28:56;;;;;;;38.53;17.08;;;12.10;99.90;;;;;;5042718;28;20045;-77
2022/10/25 01:31:49;;;;;;;43.30;17.48;;;12.20;99.90;;;;;;5004862;28;20045;-77
2022/10/25 01:34:39;;;;;;;44.65;17.52;;;12.10;99.90;;;;;;5027873;28;20060;-80
2022/10/25 01:37:18;;;;;;;43.65;17.30;;;12.20;99.90;;;;;;5056825;28;20179;-79
2022/10/25 01:40:17;;;;;;;42.95;16.88;;;12.10;99.90;;;;;;5038169;28;20072;-78
2022/10/25 01:43:15;;;;;;;36.47;15.55;;;12.20;99.90;;;;;;5055549;28;20447;-80
2022/10/25 01:46:07;;;;;;;40.75;16.20;;;12.20;99.90;;;;;;5042138;28;20136;-76
2022/10/25 01:48:38;;;;;;;38.00;15.38;;;12.30;99.90;;;;;;5033852;28;20450;-80
2022/10/25 01:51:10;;;;;;;38.03;15.68;;;12.30;99.90;;;;;;5045022;28;20048;-78
2022/10/25 01:54:02;;;;;;;34.50;14.68;;;12.30;99.90;;;;;;5023278;28;20395;-76
2022/10/25 01:56:55;;;;;;;33.70;14.70;;;12.20;99.90;;;;;;5042830;28;20049;-78
2022/10/25 01:59:35;;;;;;;38.83;14.68;;;12.30;99.90;;;;;;5080782;28;20047;-79
2022/10/25 02:05:36;;;;;;;30.88;12.85;;;12.20;99.90;;;;;;5052649;28;20078;-79
2022/10/25 02:08:12;;;;;;;26.10;12.90;;;12.40;99.90;;;;;;5078508;28;20087;-79
2022/10/25 02:10:43;;;;;;;26.05;12.40;;;12.20;99.90;;;;;;5025059;28;20065;-77
2022/10/25 02:13:16;;;;;;;27.90;12.70;;;12.40;99.90;;;;;;5076605;28;20049;-80
2022/10/25 02:16:00;;;;;;;29.38;13.25;;;12.40;99.90;;;;;;5028879;28;20841;-82
2022/10/25 02:18:30;;;;;;;28.08;12.77;;;12.40;99.90;;;;;;5046115;28;20072;-80
2022/10/25 02:20:57;;;;;;;30.38;13.05;;;12.40;99.90;;;;;;5077586;28;20037;-78
2022/10/25 02:23:25;;;;;;;30.75;13.15;;;12.50;99.90;;;;;;5022992;28;20132;-78
2022/10/25 02:25:51;;;;;;;26.15;12.60;;;12.40;99.90;;;;;;5041957;28;20036;-78
2022/10/25 02:28:21;;;;;;;25.75;12.25;;;12.50;99.90;;;;;;5060470;28;20059;-79
2022/10/25 02:30:48;;;;;;;36.28;12.82;;;12.40;99.90;;;;;;5029076;28;20431;-77
2022/10/25 02:33:17;;;;;;;27.25;12.60;;;12.30;99.90;;;;;;5044438;28;20041;-80
2022/10/25 02:35:43;;;;;;;28.30;13.05;;;12.40;99.90;;;;;;5060024;28;20041;-79
2022/10/25 02:38:10;;;;;;;30.90;12.48;;;12.50;99.90;;;;;;5060423;28;20078;-79
2022/10/25 02:40:38;;;;;;;32.85;13.45;;;12.50;99.90;;;;;;5043094;28;20068;-78
2022/10/25 02:43:04;;;;;;;34.35;14.05;;;12.50;99.90;;;;;;5074753;28;20219;-79
2022/10/25 02:45:30;;;;;;;32.83;14.57;;;12.60;99.90;;;;;;5060848;28;20049;-76
2022/10/25 02:47:55;;;;;;;33.00;13.50;;;12.60;99.90;;;;;;5040172;28;20033;-77
2022/10/25 02:50:21;;;;;;;38.97;15.20;;;12.60;99.90;;;;;;5048197;28;20109;-78
2022/10/25 02:52:46;;;;;;;30.58;14.70;;;12.60;99.90;;;;;;5032122;28;20043;-76
2022/10/25 02:55:12;;;;;;;34.97;14.63;;;12.70;99.90;;;;;;5051088;28;20037;-78
2022/10/25 02:57:38;;;;;;;32.60;13.85;;;12.60;99.90;;;;;;5047297;28;20037;-77
2022/10/25 03:00:06;;;;;;;37.05;15.30;;;12.60;99.90;;;;;;5047971;28;20041;-81
2022/10/25 03:02:31;;;;;;;37.50;14.88;;;12.80;99.90;;;;;;5048323;28;20045;-78
2022/10/25 03:04:57;;;;;;;35.42;15.05;;;12.60;99.90;;;;;;5050289;28;20064;-79
2022/10/25 03:07:23;;;;;;;31.88;14.00;;;12.80;99.90;;;;;;5033307;28;20056;-82
2022/10/25 03:09:48;;;;;;;24.60;13.27;;;12.70;99.90;;;;;;5048740;28;20081;-76
2022/10/25 03:12:14;;;;;;;40.67;14.13;;;12.80;99.90;;;;;;5036078;28;20045;-79
2022/10/25 03:14:39;;;;;;;27.77;13.20;;;12.60;99.90;;;;;;5052613;28;20041;-75
2022/10/25 03:17:06;;;;;;;30.02;13.65;;;12.60;99.90;;;;;;5061740;28;20129;-79
2022/10/25 03:19:32;;;;;;;33.78;13.43;;;12.60;99.90;;;;;;5075828;28;20045;-81
2022/10/25 03:21:58;;;;;;;27.50;12.82;;;12.50;99.90;;;;;;5060567;28;20060;-79
2022/10/25 03:24:24;;;;;;;26.65;12.40;;;12.60;99.90;;;;;;5044965;28;20045;-80
2022/10/25 03:26:49;;;;;;;32.78;12.75;;;12.40;99.90;;;;;;5044452;28;22842;-77
2022/10/25 03:29:15;;;;;;;27.20;12.10;;;12.40;99.90;;;;;;5073483;28;20083;-77
2022/10/25 03:31:41;;;;;;;30.02;12.07;;;12.60;99.90;;;;;;5046966;28;20084;-74
2022/10/25 03:37:48;;;;;;;37.08;12.35;;;12.60;99.90;;;;;;5051244;28;20491;-77
2022/10/25 03:40:14;;;;;;;30.38;11.93;;;12.50;99.90;;;;;;5063205;28;20033;-79
2022/10/25 03:42:40;;;;;;;33.47;10.95;;;12.40;99.90;;;;;;5062265;28;20159;-77
2022/10/25 03:45:06;;;;;;;29.67;10.77;;;12.40;99.90;;;;;;5073074;28;20164;-79
2022/10/25 03:47:32;;;;;;;24.25;10.15;;;12.40;99.90;;;;;;5039764;28;20049;-79
2022/10/25 03:49:58;;;;;;;29.38;10.55;;;12.40;99.90;;;;;;5027608;28;20056;-79
2022/10/25 03:52:24;;;;;;;28.88;10.85;;;12.50;99.90;;;;;;5061984;28;20041;-77
2022/10/25 03:54:49;;;;;;;32.00;11.15;;;12.40;99.90;;;;;;5045659;28;20041;-82
2022/10/25 03:57:15;;;;;;;29.63;10.77;;;12.50;99.90;;;;;;5030115;28;20053;-78
2022/10/25 03:59:43;;;;;;;30.88;11.13;;;12.50;99.90;;;;;;5035835;28;20484;-78
2022/10/25 04:02:09;;;;;;;33.92;11.15;;;12.30;99.90;;;;;;5046664;28;20125;-77
2022/10/25 04:04:35;;;;;;;40.15;11.38;;;12.30;99.90;;;;;;5044382;28;20056;-78
2022/10/25 04:07:02;;;;;;;32.45;10.77;;;12.50;99.90;;;;;;5043971;28;20045;-79
2022/10/25 04:09:28;;;;;;;42.28;11.85;;;12.30;99.90;;;;;;5067150;28;20063;-80
2022/10/25 04:11:54;;;;;;;36.88;10.98;;;12.40;99.90;;;;;;5074055;28;20484;-78
2022/10/25 04:14:22;;;;;;;36.00;11.63;;;12.40;99.90;;;;;;5040002;28;20087;-76
2022/10/25 04:16:48;;;;;;;32.75;11.85;;;12.30;99.90;;;;;;5057979;28;20133;-77
2022/10/25 04:19:14;;;;;;;36.92;12.02;;;12.30;99.90;;;;;;5061031;28;20170;-79
2022/10/25 04:21:40;;;;;;;34.20;12.73;;;12.20;99.90;;;;;;5029259;28;20052;-78
2022/10/25 04:24:06;;;;;;;38.08;12.88;;;12.30;99.90;;;;;;5042276;28;20040;-79
2022/10/25 04:26:35;;;;;;;37.88;12.57;;;12.20;99.90;;;;;;5041971;28;20526;-80
2022/10/25 04:29:02;;;;;;;32.72;12.35;;;12.20;99.90;;;;;;5014591;28;20416;-78
2022/10/25 04:31:27;;;;;;;46.05;12.70;;;12.10;99.90;;;;;;5045482;28;20072;-77
2022/10/25 04:33:54;;;;;;;41.22;13.02;;;12.20;99.90;;;;;;5039294;28;20549;-78
2022/10/25 04:36:20;;;;;;;50.88;13.32;;;12.10;99.90;;;;;;5043698;28;20056;-81
2022/10/25 04:38:50;;;;;;;43.63;12.95;;;12.10;99.90;;;;;;5047593;28;20041;-76
2022/10/25 04:41:17;;;;;;;30.55;12.60;;;12.10;99.90;;;;;;5026049;28;20132;-78
2022/10/25 04:43:42;;;;;;;47.28;12.82;;;12.10;99.90;;;;;;5030032;28;20365;-78
2022/10/25 04:46:08;;;;;;;37.03;13.43;;;12.10;99.90;;;;;;5047017;28;20037;-81
2022/10/25 04:48:41;;;;;;;37.30;13.07;;;12.10;99.90;;;;;;5053271;28;20305;-77
2022/10/25 04:51:08;;;;;;;41.30;12.95;;;12.10;99.90;;;;;;5037738;28;20109;-76
2022/10/25 04:53:34;;;;;;;43.45;13.57;;;12.00;99.90;;;;;;5057012;28;20504;-75
2022/10/25 04:56:02;;;;;;;39.63;13.07;;;12.00;99.90;;;;;;5056433;28;20076;-77
2022/10/25 04:58:28;;;;;;;39.22;12.98;;;12.00;99.90;;;;;;5054617;28;20029;-77
2022/10/25 05:01:00;;;;;;;34.88;12.60;;;12.10;99.90;;;;;;5050765;28;20044;-78
2022/10/25 05:03:26;;;;;;;40.85;12.95;;;12.10;99.90;;;;;;5052069;28;20037;-76
2022/10/25 05:05:52;;;;;;;34.42;13.25;;;12.00;99.90;;;;;;5035814;28;20031;-77
2022/10/25 05:08:17;;;;;;;49.33;14.10;;;12.10;99.90;;;;;;5058590;28;20056;-77
2022/10/25 05:10:43;;;;;;;40.38;14.23;;;12.00;99.90;;;;;;5051916;28;20349;-79
2022/10/25 05:13:08;;;;;;;41.92;14.05;;;12.00;99.90;;;;;;5044885;28;20045;-79
2022/10/25 05:15:34;;;;;;;48.53;14.55;;;12.10;99.90;;;;;;5064513;28;20376;-77
2022/10/25 05:18:00;;;;;;;52.38;14.50;;;12.10;99.90;;;;;;5046622;28;20056;-79
2022/10/25 05:20:27;;;;;;;47.03;14.70;;;12.00;99.90;;;;;;5031532;28;20049;-78
2022/10/25 05:22:53;;;;;;;46.00;14.60;;;12.10;99.90;;;;;;5030404;28;20048;-81
2022/10/25 05:25:18;;;;;;;50.75;15.20;;;12.20;99.90;;;;;;5049014;28;20037;-77
2022/10/25 05:27:44;;;;;;;41.35;15.68;;;12.00;99.90;;;;;;5031153;28;20072;-78
2022/10/25 05:30:10;;;;;;;54.90;16.58;;;12.10;99.90;;;;;;5029634;28;20053;-78
2022/10/25 05:32:36;;;;;;;50.35;15.65;;;12.10;99.90;;;;;;5048426;28;20381;-78
2022/10/25 05:35:02;;;;;;;52.00;16.67;;;12.20;99.90;;;;;;5049025;28;20106;-77
2022/10/25 05:37:29;;;;;;;45.72;16.92;;;12.10;99.90;;;;;;5044459;28;20131;-76
2022/10/25 05:39:58;;;;;;;53.65;17.75;;;12.20;99.90;;;;;;5056816;28;20048;-75
2022/10/25 05:42:26;;;;;;;52.97;18.33;;;12.20;99.90;;;;;;5043526;28;20064;-80
2022/10/25 05:44:52;;;;;;;48.05;15.73;;;12.20;99.90;;;;;;5039939;28;20048;-76
2022/10/25 05:47:17;;;;;;;49.13;19.20;;;12.30;99.90;;;;;;5023749;28;20492;-79
2022/10/25 05:49:43;;;;;;;62.10;19.23;;;12.40;99.90;;;;;;5039793;28;20041;-76
2022/10/25 05:52:09;;;;;;;58.70;18.52;;;12.40;99.90;;;;;;5041763;28;20150;-80
2022/10/25 05:54:35;;;;;;;51.67;17.98;;;12.50;99.90;;;;;;5021092;28;20033;-83
2022/10/25 05:57:00;;;;;;;50.72;17.08;;;12.50;99.90;;;;;;5021884;28;20044;-77
2022/10/25 05:59:26;;;;;;;56.03;17.02;;;12.50;99.90;;;;;;5026502;28;20471;-75
2022/10/25 06:01:51;;;;;;;58.17;16.33;;;12.50;99.90;;;;;;5033172;28;20102;-78
2022/10/25 06:04:17;;;;;;;42.42;15.40;;;12.50;99.90;;;;;;5061608;28;20079;-81
2022/10/25 06:06:45;;;;;;;41.08;14.25;;;12.30;99.90;;;;;;5024399;28;20107;-77
2022/10/25 06:09:12;;;;;;;46.58;13.90;;;12.30;99.90;;;;;;5037359;28;20048;-76
2022/10/25 06:11:39;;;;;;;45.03;14.00;;;12.40;99.90;;;;;;5037335;28;20114;-78
2022/10/25 06:14:05;;;;;;;43.83;13.02;;;12.20;99.90;;;;;;5024730;28;20049;-78
2022/10/25 06:16:32;;;;;;;33.60;12.25;;;12.10;99.90;;;;;;5027867;28;20346;-76
2022/10/25 06:18:58;;;;;;;37.42;11.93;;;12.10;99.90;;;;;;5046969;28;20168;-75
2022/10/25 06:21:28;;;;;;;33.35;11.55;;;12.10;99.90;;;;;;5037481;28;20053;-79
2022/10/25 06:23:54;;;;;;;36.97;11.93;;;12.10;99.90;;;;;;5024233;28;20071;-81
2022/10/25 06:26:23;;;;;;;42.90;11.35;;;12.20;99.90;;;;;;5040974;28;20086;-78
2022/10/25 06:28:54;;;;;;;38.03;10.73;;;12.20;99.90;;;;;;5041329;28;20045;-77
2022/10/25 06:31:21;;;;;;;32.17;10.07;;;12.10;99.90;;;;;;5059952;28;20052;-77
2022/10/25 06:33:47;;;;;;;41.42;11.63;;;12.20;99.90;;;;;;5044524;28;20049;-77
2022/10/25 06:36:16;;;;;;;38.60;10.77;;;12.10;99.90;;;;;;5050915;28;20516;-80
2022/10/25 06:38:42;;;;;;;41.22;11.50;;;12.10;99.90;;;;;;5026265;28;20055;-77
2022/10/25 06:41:20;;;;;;;40.63;11.20;;;12.20;99.90;;;;;;5039876;28;20056;-77
2022/10/25 06:43:47;;;;;;;39.15;12.10;;;12.10;99.90;;;;;;5044290;28;20131;-78
2022/10/25 06:46:29;;;;;;;36.90;12.07;;;12.10;99.90;;;;;;5040145;28;20446;-78
2022/10/25 06:48:56;;;;;;;38.72;11.75;;;12.10;99.90;;;;;;5028559;28;20067;-79
2022/10/25 06:51:22;;;;;;;37.28;11.18;;;12.20;99.90;;;;;;5027029;28;20038;-75
2022/10/25 06:54:00;;;;;;;35.33;11.05;;;12.10;99.90;;;;;;5048689;28;20408;-79
2022/10/25 06:56:27;;;;;;;33.40;10.32;;;12.20;99.90;;;;;;5048539;28;20045;-78
2022/10/25 06:58:53;;;;;;;36.08;10.10;;;12.20;99.90;;;;;;5046461;28;20107;-79
2022/10/25 07:01:20;;;;;;;35.55;10.13;;;12.20;99.90;;;;;;5079972;28;20099;-78
2022/10/25 07:03:49;;;;;;;33.90;10.35;;;12.20;99.90;;;;;;5027971;28;20084;-80
2022/10/25 07:06:17;;;;;;;32.97;10.02;;;12.20;99.90;;;;;;5028666;28;20075;-78
2022/10/25 07:08:45;;;;;;;34.60;10.13;;;12.00;99.90;;;;;;5045231;28;20485;-79
2022/10/25 07:11:17;;;;;;;34.78;10.35;;;12.10;99.90;;;;;;5079853;28;20137;-77
2022/10/25 07:13:45;;;;;;;35.05;9.77;;;12.00;99.90;;;;;;5027264;28;20175;-77
2022/10/25 07:16:14;;;;;;;38.10;10.07;;;12.10;99.90;;;;;;5049159;28;20049;-76
2022/10/25 07:18:40;;;;;;;33.60;10.07;;;12.20;99.90;;;;;;5038758;28;20053;-78
2022/10/25 07:21:32;;;;;;;34.40;9.32;;;12.20;99.90;;;;;;5042107;28;20053;-77
2022/10/25 07:23:58;;;;;;;37.92;9.82;;;12.30;99.90;;;;;;5037962;28;20072;-76
2022/10/25 07:26:26;;;;;;;30.38;8.95;;;12.20;99.90;;;;;;5041129;28;20052;-77
2022/10/25 07:28:54;;;;;;;36.58;8.48;;;12.30;99.90;;;;;;5038660;28;20048;-76
2022/10/25 07:31:25;;;;;;;29.73;8.45;;;12.30;99.90;;;;;;5006834;28;20147;-76
2022/10/25 07:33:53;;;;;;;31.38;8.73;;;12.40;99.90;;;;;;5038080;28;20033;-79
2022/10/25 07:36:21;;;;;;;42.55;8.73;;;12.30;99.90;;;;;;5028137;28;20420;-78
2022/10/25 07:38:47;;;;;;;31.50;9.20;;;12.40;99.90;;;;;;5044656;28;20052;-77
2022/10/25 07:41:13;;;;;;;31.35;8.73;;;12.40;99.90;;;;;;5046549;28;20128;-78
2022/10/25 07:43:39;;;;;;;30.17;8.23;;;12.40;99.90;;;;;;5045268;28;20087;-78
2022/10/25 07:46:05;;;;;;;29.58;7.85;;;12.40;99.90;;;;;;5047438;28;20060;-81
2022/10/25 07:48:31;;;;;;;27.67;8.20;;;12.50;99.90;;;;;;5014013;28;21868;-77
2022/10/25 07:51:01;;;;;;;30.48;7.60;;;12.50;99.90;;;;;;5045653;28;20060;-78
2022/10/25 07:53:26;;;;;;;28.67;7.60;;;12.40;99.90;;;;;;5046755;28;20064;-77
2022/10/25 07:55:54;;;;;;;34.42;8.30;;;12.60;99.90;;;;;;5046475;28;20064;-77
2022/10/25 07:58:20;;;;;;;28.05;7.82;;;12.50;99.90;;;;;;5068218;28;20053;-80
2022/10/25 08:00:46;;;;;;;26.48;7.78;;;12.60;99.90;;;;;;5035858;28;20091;-77
2022/10/25 08:03:12;;;;;;;30.83;8.00;;;12.60;99.90;;;;;;5035542;28;20108;-79
2022/10/25 08:05:38;;;;;;;30.33;7.38;;;12.70;99.90;;;;;;5032857;28;20033;-77
2022/10/25 08:08:05;;;;;;;31.80;7.93;;;12.70;99.90;;;;;;5035094;28;20456;-79
2022/10/25 08:10:34;;;;;;;25.17;7.47;;;12.70;99.90;;;;;;5049263;28;20053;-78
2022/10/25 08:12:59;;;;;;;36.72;7.68;;;12.70;99.90;;;;;;5027436;28;20079;-77
2022/10/25 08:15:25;;;;;;;27.42;6.63;;;12.80;99.90;;;;;;5049692;28;20052;-76
2022/10/25 08:18:01;;;;;;;25.35;7.10;;;12.90;99.90;;;;;;5028524;28;20428;-76
2022/10/25 08:20:28;;;;;;;28.95;6.78;;;12.90;99.90;;;;;;5043905;28;20141;-76
2022/10/25 08:22:58;;;;;;;26.17;7.22;;;13.00;99.90;;;;;;5048448;28;20037;-77
2022/10/25 08:25:24;;;;;;;30.90;6.78;;;13.00;99.90;;;;;;5047748;28;20119;-76
2022/10/25 08:27:50;;;;;;;32.30;7.55;;;13.10;99.90;;;;;;5058363;28;20053;-78
2022/10/25 08:30:15;;;;;;;34.22;7.43;;;13.10;99.90;;;;;;5042223;28;20052;-77
2022/10/25 08:32:41;;;;;;;37.50;7.65;;;13.20;99.90;;;;;;5045626;28;20053;-79
2022/10/25 08:35:07;;;;;;;24.70;6.82;;;13.40;99.90;;;;;;5026918;28;20051;-80
2022/10/25 08:37:33;;;;;;;27.95;7.22;;;13.30;99.90;;;;;;5058702;28;20116;-78
2022/10/25 08:39:58;;;;;;;30.40;7.07;;;13.50;99.90;;;;;;5056889;28;20134;-81
2022/10/25 08:42:31;;;;;;;31.40;8.40;;;13.40;99.90;;;;;;5066465;28;20276;-80
2022/10/25 08:45:09;;;;;;;31.63;7.63;;;13.60;99.90;;;;;;5041439;28;20068;-77
2022/10/25 08:47:45;;;;;;;28.52;7.57;;;13.50;99.90;;;;;;5043629;28;20036;-78
2022/10/25 08:50:15;;;;;;;32.83;8.07;;;13.70;99.90;;;;;;5054786;28;20135;-77
2022/10/25 08:52:54;;;;;;;25.63;7.95;;;13.80;99.90;;;;;;5046883;28;20053;-77
2022/10/25 08:55:32;;;;;;;30.52;8.20;;;13.70;99.90;;;;;;5038159;28;20049;-76
2022/10/25 08:57:59;;;;;;;24.10;6.97;;;13.70;99.90;;;;;;5047974;28;20052;-79
2022/10/25 09:00:31;;;;;;;30.20;8.73;;;13.80;99.90;;;;;;5028745;28;20061;-78
2022/10/25 09:02:59;;;;;;;28.70;8.20;;;13.60;99.90;;;;;;5027778;28;20053;-76
2022/10/25 09:05:30;;;;;;;27.35;8.70;;;13.70;99.90;;;;;;5044578;28;20051;-77
2022/10/25 09:08:25;;;;;;;32.15;8.98;;;13.70;99.90;;;;;;5060562;28;20056;-80
2022/10/25 09:11:28;;;;;;;26.48;8.10;;;13.70;99.90;;;;;;4987827;28;20133;-78
2022/10/25 09:14:11;;;;;;;30.25;8.63;;;13.90;99.90;;;;;;4990028;28;20473;-79
2022/10/25 09:16:52;;;;;;;34.75;9.07;;;14.00;99.90;;;;;;4975416;28;20050;-78
2022/10/25 09:19:37;;;;;;;28.50;8.35;;;14.00;99.90;;;;;;4991353;28;20149;-76
2022/10/25 09:22:10;;;;;;;23.83;8.32;;;14.20;99.90;;;;;;4977494;28;20553;-77
2022/10/25 09:24:54;;;;;;;36.05;8.82;;;14.20;99.90;;;;;;4978840;28;20557;-76
2022/10/25 09:27:40;;;;;;;28.77;8.38;;;14.40;99.90;;;;;;5014314;28;20049;-79
2022/10/25 09:30:08;;;;;;;25.80;8.05;;;14.40;99.90;;;;;;4991440;28;20065;-78
2022/10/25 09:33:00;;;;;;;25.67;7.60;;;14.50;99.90;;;;;;5009294;28;20120;-78
2022/10/25 09:35:45;;;;;;;27.92;7.53;;;14.50;99.90;;;;;;4977189;28;20413;-79
2022/10/25 09:38:21;;;;;;;29.65;7.28;;;14.60;99.90;;;;;;4981210;28;20066;-75
2022/10/25 09:41:13;;;;;;;29.90;7.70;;;14.60;99.90;;;;;;4975634;28;20074;-77
2022/10/25 09:43:46;;;;;;;24.90;7.07;;;14.70;99.90;;;;;;4975404;28;20053;-77
2022/10/25 09:46:32;;;;;;;27.75;6.30;;;14.90;99.90;;;;;;4993374;28;20124;-78
2022/10/25 09:49:06;;;;;;;23.90;6.05;;;14.90;99.90;;;;;;5044937;28;20480;-78
2022/10/25 09:52:16;;;;;;;25.58;6.78;;;15.00;99.90;;;;;;5044967;28;20053;-79
2022/10/25 09:55:17;;;;;;;21.17;6.40;;;15.00;99.90;;;;;;4987194;28;20054;-78
2022/10/25 09:57:45;;;;;;;25.67;5.93;;;14.90;99.90;;;;;;4988016;28;20124;-78
2022/10/25 10:00:12;;;;;;;22.33;5.45;;;14.90;99.90;;;;;;4989138;28;20543;-79
2022/10/25 10:02:40;;;;;;;24.92;5.25;;;14.90;99.90;;;;;;4988745;28;20037;-78
2022/10/25 10:05:14;;;;;;;26.35;5.20;;;14.80;99.90;;;;;;5009148;28;20568;-80
2022/10/25 10:07:42;;;;;;;24.85;4.93;;;14.70;99.90;;;;;;4989597;28;20110;-81
2022/10/25 10:10:13;;;;;;;18.30;4.38;;;14.80;99.90;;;;;;4992468;28;20057;-77
2022/10/25 10:12:55;;;;;;;32.15;5.03;;;14.80;99.90;;;;;;4967206;28;20045;-80
2022/10/25 10:15:37;;;;;;;16.08;4.20;;;14.70;99.90;;;;;;5007938;28;20124;-77
2022/10/25 10:18:24;;;;;;;21.65;4.18;;;14.80;99.90;;;;;;4985095;28;20378;-78
2022/10/25 10:21:08;;;;;;;22.75;4.25;;;14.90;99.90;;;;;;4995032;28;20037;-80
2022/10/25 10:23:42;;;;;;;17.52;3.05;;;15.00;99.90;;;;;;5011132;28;20625;-76
2022/10/25 10:26:19;;;;;;;18.20;3.67;;;15.10;99.90;;;;;;4973057;28;20064;-78
2022/10/25 10:28:47;;;;;;;19.48;3.30;;;15.10;99.90;;;;;;4989177;28;20064;-76
2022/10/25 10:31:13;;;;;;;18.27;2.67;;;15.20;99.90;;;;;;5001009;28;20412;-75
2022/10/25 10:33:40;;;;;;;15.18;2.90;;;15.20;99.90;;;;;;5047887;28;20546;-79
2022/10/25 10:36:27;;;;;;;20.23;3.30;;;15.30;99.90;;;;;;5044753;28;20511;-76
2022/10/25 10:38:53;;;;;;;19.08;2.95;;;15.30;99.90;;;;;;5030468;28;20041;-77
2022/10/25 10:41:24;;;;;;;21.45;3.22;;;15.40;99.90;;;;;;5020321;28;20060;-81
2022/10/25 10:44:10;;;;;;;21.30;2.83;;;15.50;99.90;;;;;;5047025;28;20101;-79
2022/10/25 10:46:42;;;;;;;14.60;2.97;;;15.80;99.90;;;;;;5062062;28;20213;-80
2022/10/25 10:49:09;;;;;;;16.50;2.90;;;15.90;99.90;;;;;;5046261;28;20103;-77
2022/10/25 10:51:39;;;;;;;17.50;2.65;;;16.10;99.90;;;;;;5054785;28;20057;-77
2022/10/25 10:54:22;;;;;;;17.45;2.72;;;16.10;99.90;;;;;;5086639;28;20049;-77
2022/10/25 10:57:02;;;;;;;18.60;2.78;;;16.20;99.90;;;;;;5065107;28;20045;-75
2022/10/25 10:59:31;;;;;;;16.10;2.95;;;16.40;99.90;;;;;;5030692;28;20053;-78
2022/10/25 11:02:09;;;;;;;13.77;2.20;;;16.50;99.90;;;;;;5061545;28;20045;-77
2022/10/25 11:04:49;;;;;;;15.38;3.17;;;16.60;99.90;;;;;;5077765;28;20056;-77
2022/10/25 11:07:26;;;;;;;11.93;2.63;;;16.40;99.90;;;;;;5041110;28;20047;-83
2022/10/25 11:10:13;;;;;;;12.85;2.42;;;16.50;99.90;;;;;;5027809;28;20037;-79
2022/10/25 11:12:39;;;;;;;12.98;2.58;;;16.40;99.90;;;;;;5041086;28;20083;-80
2022/10/25 11:15:15;;;;;;;14.52;2.42;;;16.30;99.90;;;;;;5041932;28;20378;-80
2022/10/25 11:17:59;;;;;;;11.90;2.08;;;16.40;99.90;;;;;;5056497;28;20106;-78
2022/10/25 11:20:51;;;;;;;15.07;2.45;;;16.40;99.90;;;;;;5058035;28;20063;-80
2022/10/25 11:23:26;;;;;;;21.23;2.80;;;16.60;99.90;;;;;;5037466;28;20065;-78
2022/10/25 11:26:01;;;;;;;10.18;2.00;;;16.50;99.90;;;;;;5044267;28;20029;-80
2022/10/25 11:28:43;;;;;;;13.23;2.80;;;16.50;99.90;;;;;;5028343;28;20056;-78
2022/10/25 11:31:31;;;;;;;20.02;2.90;;;16.60;99.90;;;;;;5040800;28;20060;-79
2022/10/25 11:34:15;;;;;;;20.02;3.30;;;16.60;99.90;;;;;;5024134;28;20123;-81
2022/10/25 11:37:00;;;;;;;14.13;2.90;;;16.60;99.90;;;;;;5043108;28;20089;-81
2022/10/25 11:39:35;;;;;;;19.95;3.05;;;16.60;99.90;;;;;;5046137;28;20067;-77
2022/10/25 11:42:45;;;;;;;14.70;2.58;;;16.80;99.90;;;;;;5044114;28;20371;-77
2022/10/25 11:45:25;;;;;;;14.65;2.97;;;16.40;99.90;;;;;;4950881;28;20054;-80
2022/10/25 11:48:14;;;;;;;14.77;2.40;;;16.50;99.90;;;;;;4968353;28;20038;-78
2022/10/25 11:51:00;;;;;;;23.02;3.08;;;16.50;99.90;;;;;;4952761;28;20362;-79
2022/10/25 11:53:42;;;;;;;18.25;3.00;;;16.70;99.90;;;;;;4978274;28;20042;-77
2022/10/25 11:56:52;;;;;;;12.07;2.35;;;16.60;99.90;;;;;;4962991;28;20062;-77
2022/10/25 11:59:39;;;;;;;17.33;2.53;;;16.60;99.90;;;;;;4981814;28;20054;-81
2022/10/25 12:02:07;;;;;;;10.32;2.40;;;16.50;99.90;;;;;;4966206;28;20062;-77
2022/10/25 12:04:45;;;;;;;12.68;2.42;;;16.60;99.90;;;;;;4971009;28;20042;-79
2022/10/25 12:07:37;;;;;;;11.40;2.35;;;16.60;99.90;;;;;;4970775;28;20148;-77
2022/10/25 12:10:22;;;;;;;19.30;2.47;;;16.60;99.90;;;;;;4968348;28;20050;-78
2022/10/25 12:13:04;;;;;;;15.57;2.75;;;16.60;99.90;;;;;;4972824;28;20050;-77
2022/10/25 12:15:47;;;;;;;9.52;2.20;;;16.60;99.90;;;;;;4975395;28;20046;-76
2022/10/25 12:18:22;;;;;;;13.70;2.45;;;16.70;99.90;;;;;;4973182;28;20042;-80
2022/10/25 12:20:48;;;;;;;15.50;2.67;;;16.70;99.90;;;;;;4969416;28;20072;-79
2022/10/25 12:23:19;;;;;;;10.75;2.22;;;16.70;99.90;;;;;;5046488;28;20041;-79
2022/10/25 12:25:58;;;;;;;19.15;2.67;;;16.50;99.90;;;;;;5047356;28;20052;-79
2022/10/25 12:28:45;;;;;;;9.55;1.90;;;16.50;99.90;;;;;;5035200;28;20063;-80
2022/10/25 12:31:28;;;;;;;12.27;2.55;;;16.50;99.90;;;;;;5023954;28;20055;-77
2022/10/25 12:34:00;;;;;;;10.73;2.15;;;16.40;99.90;;;;;;5033196;28;20053;-79
2022/10/25 12:36:53;;;;;;;16.42;2.22;;;16.20;99.90;;;;;;5028575;28;20068;-80
2022/10/25 12:39:38;;;;;;;14.77;2.20;;;16.40;99.90;;;;;;5059172;28;20049;-78
2022/10/25 12:42:30;;;;;;;7.68;2.00;;;16.70;99.90;;;;;;5061653;28;20077;-81
2022/10/25 12:45:22;;;;;;;11.48;2.20;;;16.90;99.90;;;;;;4986308;28;20157;-77
2022/10/25 12:48:00;;;;;;;6.20;1.98;;;16.80;99.90;;;;;;4991340;28;20046;-76
2022/10/25 12:50:53;;;;;;;12.85;2.05;;;16.90;99.90;;;;;;4967717;28;20064;-78
2022/10/25 12:53:52;;;;;;;11.60;1.95;;;17.00;99.90;;;;;;4964805;28;20157;-78
2022/10/25 12:56:57;;;;;;;11.50;2.28;;;17.20;99.90;;;;;;4985123;28;20042;-77
2022/10/25 12:59:32;;;;;;;11.05;2.40;;;17.20;99.90;;;;;;4979073;28;20124;-79
2022/10/25 13:02:06;;;;;;;14.23;3.10;;;17.20;99.90;;;;;;4948184;28;20054;-78
2022/10/25 13:04:52;;;;;;;11.00;2.13;;;17.10;99.90;;;;;;4969398;28;20085;-82
2022/10/25 13:07:19;;;;;;;15.63;2.28;;;17.10;99.90;;;;;;4978953;28;20043;-79